Time;durP1;ratioP1;P1;durP2;ratioP2;P2;SDS_P1;SDS_P2;PMS_P1;PMS_P2;Temp;Humidity;BMP_temperature;BMP_pressure;BME280_temperature;BME280_humidity;BME280_pressure;Samples;Min_cycle;Max_cycle;Signal;HPM_P1;HPM_P2
2021/12/31 00:00:25;;;;;;;25.20;5.13;;;;;;;12.84;100.00;101758.44;5022291;28;20025;-51
2021/12/31 00:02:50;;;;;;;18.20;5.00;;;;;;;12.85;100.00;101753.94;5017013;28;20033;-51
2021/12/31 00:05:16;;;;;;;17.15;4.78;;;;;;;12.91;100.00;101761.34;5021429;28;20028;-50
2021/12/31 00:07:41;;;;;;;20.60;4.47;;;;;;;12.87;100.00;101762.66;5016828;28;20083;-49
2021/12/31 00:10:07;;;;;;;18.00;4.72;;;;;;;12.87;100.00;101763.50;5019916;28;20036;-48
2021/12/31 00:12:33;;;;;;;17.80;5.05;;;;;;;12.86;100.00;101761.84;5017233;28;20029;-50
2021/12/31 00:14:59;;;;;;;12.63;4.18;;;;;;;12.86;100.00;101756.47;5017265;28;20056;-49
2021/12/31 00:17:25;;;;;;;15.13;4.22;;;;;;;12.89;100.00;101757.97;5018319;28;20378;-50
2021/12/31 00:19:59;;;;;;;27.20;4.65;;;;;;;12.85;100.00;101761.97;5017086;28;20029;-49
2021/12/31 00:25:09;;;;;;;16.17;4.10;;;;;;;12.94;100.00;101758.38;5017413;28;20036;-47
2021/12/31 00:27:34;;;;;;;15.60;3.80;;;;;;;12.95;100.00;101768.09;5017118;28;20025;-50
2021/12/31 00:30:00;;;;;;;14.90;4.47;;;;;;;13.01;100.00;101761.28;5016907;28;20033;-51
2021/12/31 00:32:25;;;;;;;13.75;4.00;;;;;;;13.05;100.00;101770.69;5017762;28;20026;-50
2021/12/31 00:34:50;;;;;;;12.43;3.92;;;;;;;13.05;100.00;101768.88;5016781;28;20028;-49
2021/12/31 00:37:32;;;;;;;11.88;3.67;;;;;;;13.05;100.00;101768.88;5017227;28;20059;-47
2021/12/31 00:39:58;;;;;;;14.32;4.07;;;;;;;13.01;100.00;101762.09;5016661;28;20034;-49
2021/12/31 00:42:23;;;;;;;13.95;3.60;;;;;;;13.02;100.00;101766.47;5017967;28;20025;-50
2021/12/31 00:44:48;;;;;;;13.95;4.15;;;;;;;13.00;100.00;101767.63;5016103;28;20055;-50
2021/12/31 00:47:14;;;;;;;11.60;3.55;;;;;;;13.00;100.00;101756.91;5017405;28;20024;-51
2021/12/31 00:49:39;;;;;;;15.93;3.78;;;;;;;13.03;100.00;101760.13;5016278;28;20086;-49
2021/12/31 00:52:07;;;;;;;13.10;3.53;;;;;;;13.02;100.00;101766.47;5017060;28;20101;-50
2021/12/31 00:54:32;;;;;;;16.40;3.50;;;;;;;13.02;100.00;101763.81;5016389;28;20276;-50
2021/12/31 00:57:02;;;;;;;7.28;3.15;;;;;;;13.05;100.00;101763.50;5017226;28;20032;-50
2021/12/31 00:59:28;;;;;;;12.52;3.50;;;;;;;13.04;100.00;101767.16;5014958;28;20522;-47
2021/12/31 01:01:53;;;;;;;10.02;3.60;;;;;;;13.04;100.00;101763.66;5016782;28;20211;-50
2021/12/31 01:04:19;;;;;;;13.52;3.40;;;;;;;13.04;100.00;101769.84;5016519;28;20036;-50
2021/12/31 01:06:44;;;;;;;17.15;3.72;;;;;;;13.05;100.00;101781.41;5016296;28;20120;-49
2021/12/31 01:09:09;;;;;;;9.35;3.05;;;;;;;13.05;100.00;101773.34;5017277;28;20029;-49
2021/12/31 01:11:34;;;;;;;10.50;3.40;;;;;;;13.04;100.00;101782.41;5015777;28;20144;-49
2021/12/31 01:14:04;;;;;;;12.68;3.20;;;;;;;13.05;100.00;101779.59;5016877;28;20036;-47
2021/12/31 01:16:38;;;;;;;9.80;3.60;;;;;;;13.06;100.00;101775.06;5015876;28;20103;-51
2021/12/31 01:21:31;;;;;;;9.32;2.88;;;;;;;13.04;100.00;101777.88;5016083;28;20026;-49
2021/12/31 01:23:58;;;;;;;14.52;3.40;;;;;;;13.05;100.00;101776.91;5016403;28;20031;-51
2021/12/31 01:26:24;;;;;;;13.52;3.08;;;;;;;13.04;100.00;101764.47;5016996;28;20036;-48
2021/12/31 01:28:49;;;;;;;11.93;3.00;;;;;;;13.01;100.00;101772.84;5016361;28;20104;-48
2021/12/31 01:31:14;;;;;;;15.43;3.42;;;;;;;12.99;100.00;101758.75;5015570;28;20444;-51
2021/12/31 01:33:39;;;;;;;8.45;3.25;;;;;;;12.98;100.00;101766.94;5015736;28;20060;-49
2021/12/31 01:36:05;;;;;;;10.55;3.03;;;;;;;12.98;100.00;101775.84;5016078;28;20029;-49
2021/12/31 01:38:31;;;;;;;11.65;3.25;;;;;;;12.96;100.00;101775.13;5015373;28;20415;-49
2021/12/31 01:40:56;;;;;;;12.27;2.90;;;;;;;12.98;100.00;101785.72;5016660;28;20040;-50
2021/12/31 01:43:22;;;;;;;12.85;3.50;;;;;;;12.94;100.00;101765.56;5016349;28;20047;-50
2021/12/31 01:45:54;;;;;;;11.88;3.40;;;;;;;12.95;100.00;101777.97;5015681;28;20489;-49
2021/12/31 01:50:49;;;;;;;15.48;3.28;;;;;;;12.93;100.00;101782.66;5016021;28;20100;-50
2021/12/31 01:53:19;;;;;;;8.93;2.97;;;;;;;12.90;100.00;101783.81;5016401;28;20044;-50
2021/12/31 01:55:44;;;;;;;13.40;3.50;;;;;;;12.85;100.00;101786.09;5015033;28;20470;-49
2021/12/31 01:58:11;;;;;;;14.15;3.60;;;;;;;12.86;100.00;101787.78;5014804;28;20044;-48
2021/12/31 02:00:38;;;;;;;11.85;3.25;;;;;;;12.88;100.00;101785.78;5015174;28;20271;-50
2021/12/31 02:03:05;;;;;;;14.60;3.10;;;;;;;12.88;100.00;101791.13;5014489;28;20133;-51
2021/12/31 02:05:31;;;;;;;9.35;3.40;;;;;;;12.87;100.00;101800.19;5016032;28;20406;-51
2021/12/31 02:08:00;;;;;;;11.35;3.35;;;;;;;12.86;100.00;101790.47;5016379;28;20193;-51
2021/12/31 02:10:26;;;;;;;18.65;3.80;;;;;;;12.85;100.00;101789.63;5016605;28;20562;-52
2021/12/31 02:12:52;;;;;;;15.80;3.50;;;;;;;12.81;100.00;101796.28;5015713;28;20037;-50
2021/12/31 02:15:19;;;;;;;8.18;3.22;;;;;;;12.80;100.00;101799.97;5014805;28;20277;-51
2021/12/31 02:17:47;;;;;;;8.60;3.40;;;;;;;12.80;100.00;101801.81;5015464;28;20026;-51
2021/12/31 02:20:14;;;;;;;10.68;3.47;;;;;;;12.83;100.00;101786.25;5016445;28;20472;-47
2021/12/31 02:22:49;;;;;;;13.02;3.22;;;;;;;12.86;100.00;101788.63;5014211;28;20023;-49
2021/12/31 02:25:15;;;;;;;12.88;3.55;;;;;;;12.88;100.00;101788.47;5015987;28;20021;-48
2021/12/31 02:27:40;;;;;;;12.93;3.63;;;;;;;12.85;100.00;101776.22;5015570;28;20025;-51
2021/12/31 02:30:09;;;;;;;14.45;3.40;;;;;;;12.85;100.00;101781.59;5015250;28;20083;-50
2021/12/31 02:32:35;;;;;;;9.50;2.83;;;;;;;12.86;100.00;101779.72;5014579;28;20033;-50
2021/12/31 02:35:01;;;;;;;10.45;3.40;;;;;;;12.84;100.00;101782.56;5016146;28;20040;-50
2021/12/31 02:37:27;;;;;;;8.95;3.22;;;;;;;12.87;100.00;101776.91;5019756;28;20042;-52
2021/12/31 02:39:52;;;;;;;8.82;3.08;;;;;;;12.81;100.00;101788.25;5019295;28;20036;-51
2021/12/31 02:42:17;;;;;;;11.80;3.38;;;;;;;12.79;100.00;101776.81;5019411;28;20036;-48
2021/12/31 02:44:43;;;;;;;11.05;3.03;;;;;;;12.82;100.00;101767.66;5018307;28;20248;-50
2021/12/31 02:47:08;;;;;;;20.88;3.38;;;;;;;12.83;100.00;101770.16;5018674;28;20436;-48
2021/12/31 02:49:38;;;;;;;18.95;3.92;;;;;;;12.82;100.00;101763.13;5018415;28;20449;-50
2021/12/31 02:52:07;;;;;;;13.98;3.30;;;;;;;12.84;100.00;101760.28;5019400;28;20017;-51
2021/12/31 02:54:36;;;;;;;10.63;3.50;;;;;;;12.84;100.00;101755.75;5018556;28;20379;-51
2021/12/31 02:57:02;;;;;;;14.35;3.40;;;;;;;12.85;100.00;101756.63;5019650;28;20072;-49
2021/12/31 02:59:28;;;;;;;13.73;3.70;;;;;;;12.85;100.00;101761.97;5018021;28;20411;-49
2021/12/31 03:01:54;;;;;;;9.95;2.97;;;;;;;12.81;100.00;101756.09;5019687;28;20116;-49
2021/12/31 03:04:23;;;;;;;12.82;3.45;;;;;;;12.83;100.00;101770.16;5018914;28;20056;-51
2021/12/31 03:06:49;;;;;;;11.07;3.20;;;;;;;12.85;100.00;101765.50;5018716;28;20343;-50
2021/12/31 03:09:16;;;;;;;13.48;3.10;;;;;;;12.86;100.00;101767.19;5019206;28;20044;-48
2021/12/31 03:11:42;;;;;;;11.35;3.20;;;;;;;12.85;100.00;101761.97;5018914;28;20474;-49
2021/12/31 03:14:09;;;;;;;9.95;3.17;;;;;;;12.81;100.00;101761.44;5017642;28;20109;-50
2021/12/31 03:16:34;;;;;;;15.55;3.53;;;;;;;12.83;100.00;101759.44;5018169;28;20121;-51
2021/12/31 03:19:00;;;;;;;15.35;3.25;;;;;;;12.82;100.00;101763.13;5017190;28;20033;-49
2021/12/31 03:21:25;;;;;;;9.38;2.95;;;;;;;12.82;100.00;101755.06;5019054;28;20018;-51
2021/12/31 03:23:52;;;;;;;13.18;2.88;;;;;;;12.84;100.00;101752.25;5018462;28;20083;-47
2021/12/31 03:26:19;;;;;;;9.93;3.35;;;;;;;12.82;100.00;101748.88;5018870;28;20567;-49
2021/12/31 03:28:44;;;;;;;10.50;3.30;;;;;;;12.80;100.00;101757.06;5017822;28;20049;-51
2021/12/31 03:31:10;;;;;;;13.27;3.35;;;;;;;12.79;100.00;101750.00;5019446;28;20124;-51
2021/12/31 03:33:35;;;;;;;11.73;3.38;;;;;;;12.75;100.00;101745.97;5018173;28;20080;-51
2021/12/31 03:36:00;;;;;;;14.35;3.60;;;;;;;12.73;100.00;101755.13;5017997;28;20033;-48
2021/12/31 03:38:26;;;;;;;9.48;3.30;;;;;;;12.76;100.00;101754.84;5019043;28;20043;-50
2021/12/31 03:40:51;;;;;;;13.15;3.50;;;;;;;12.73;100.00;101741.75;5017966;28;20475;-50
2021/12/31 03:43:16;;;;;;;14.05;3.10;;;;;;;12.72;100.00;101746.25;5018359;28;20428;-49
2021/12/31 03:45:42;;;;;;;13.02;3.38;;;;;;;12.69;100.00;101744.75;5016769;28;20021;-49
2021/12/31 03:48:07;;;;;;;12.60;3.17;;;;;;;12.69;100.00;101741.22;5018418;28;20726;-51
2021/12/31 03:50:32;;;;;;;9.13;3.38;;;;;;;12.68;100.00;101744.91;5018372;28;20022;-50
2021/12/31 03:52:58;;;;;;;11.20;3.25;;;;;;;12.68;100.00;101737.69;5018167;28;20367;-48
2021/12/31 03:55:23;;;;;;;15.85;3.50;;;;;;;12.67;100.00;101732.47;5018745;28;20033;-50
2021/12/31 03:57:49;;;;;;;12.30;3.58;;;;;;;12.68;100.00;101745.72;5017974;28;20032;-51
2021/12/31 04:00:14;;;;;;;13.32;3.40;;;;;;;12.69;100.00;101747.44;5017015;28;20090;-50
2021/12/31 04:02:40;;;;;;;16.55;3.78;;;;;;;12.72;100.00;101737.41;5016005;28;20025;-50
2021/12/31 04:05:06;;;;;;;12.65;3.80;;;;;;;12.70;100.00;101740.22;5017784;28;20021;-50
2021/12/31 04:07:31;;;;;;;15.40;3.67;;;;;;;12.69;100.00;101743.88;5017733;28;20524;-51
2021/12/31 04:09:56;;;;;;;11.60;3.75;;;;;;;12.66;100.00;101741.50;5018460;28;20029;-47
2021/12/31 04:12:22;;;;;;;16.50;4.20;;;;;;;12.66;100.00;101736.16;5017761;28;20103;-49
2021/12/31 04:14:47;;;;;;;15.25;3.78;;;;;;;12.66;100.00;101738.81;5016746;28;20026;-48
2021/12/31 04:17:12;;;;;;;14.27;3.97;;;;;;;12.67;100.00;101740.53;5018022;28;20033;-50
2021/12/31 04:19:38;;;;;;;12.75;3.40;;;;;;;12.67;100.00;101733.31;5016259;28;20317;-49
2021/12/31 04:22:04;;;;;;;12.57;4.00;;;;;;;12.67;100.00;101745.88;5017541;28;20096;-51
2021/12/31 04:24:52;;;;;;;16.08;3.70;;;;;;;12.64;100.00;101735.47;5017511;28;20071;-50
2021/12/31 04:27:15;;;;;;;17.38;4.20;;;;;;;12.60;100.00;101732.25;5016959;28;20079;-46
2021/12/31 04:29:47;;;;;;;16.92;4.18;;;;;;;12.61;100.00;101733.94;5016722;28;20061;-50
2021/12/31 04:32:12;;;;;;;15.35;3.92;;;;;;;12.59;100.00;101730.59;5016730;28;20151;-46
2021/12/31 04:34:37;;;;;;;17.25;4.25;;;;;;;12.57;100.00;101726.34;5016914;28;20105;-51
2021/12/31 04:37:03;;;;;;;12.50;4.18;;;;;;;12.55;100.00;101725.69;5017195;28;20524;-51
2021/12/31 04:39:28;;;;;;;15.43;4.47;;;;;;;12.54;100.00;101732.84;5016693;28;20029;-51
2021/12/31 04:41:54;;;;;;;10.30;3.80;;;;;;;12.56;100.00;101721.97;5017824;28;20383;-48
2021/12/31 04:44:19;;;;;;;14.75;4.18;;;;;;;12.49;100.00;101711.91;5016586;28;20169;-46
2021/12/31 04:46:44;;;;;;;14.43;4.20;;;;;;;12.52;100.00;101713.41;5017211;28;20053;-51
2021/12/31 04:49:26;;;;;;;12.23;4.05;;;;;;;12.51;100.00;101709.06;5156201;27;19937;-50
2021/12/31 04:51:52;;;;;;;15.60;4.05;;;;;;;12.50;100.00;101707.38;5134763;27;20027;-51
2021/12/31 04:54:17;;;;;;;16.13;4.25;;;;;;;12.48;100.00;101712.03;5135829;27;20261;-49
2021/12/31 04:56:43;;;;;;;11.50;4.28;;;;;;;12.45;100.00;101712.34;5135097;27;20015;-50
2021/12/31 04:59:09;;;;;;;13.32;4.18;;;;;;;12.47;100.00;101721.94;5134813;27;20011;-49
2021/12/31 05:01:35;;;;;;;11.98;3.92;;;;;;;12.47;100.00;101721.06;5133227;27;20047;-50
2021/12/31 05:04:01;;;;;;;15.88;3.85;;;;;;;12.46;100.00;101719.41;5114138;28;20015;-53
2021/12/31 05:06:26;;;;;;;11.13;4.10;;;;;;;12.43;100.00;101709.81;5114093;28;20419;-51
2021/12/31 05:08:51;;;;;;;16.27;4.28;;;;;;;12.43;100.00;101722.38;5094779;28;20016;-49
2021/12/31 05:11:17;;;;;;;14.07;3.92;;;;;;;12.45;100.00;101723.88;5114428;28;20083;-51
2021/12/31 05:13:42;;;;;;;11.95;4.15;;;;;;;12.46;100.00;101716.72;5094858;28;20027;-49
2021/12/31 05:16:07;;;;;;;18.02;4.60;;;;;;;12.43;100.00;101725.88;5115020;28;20069;-50
2021/12/31 05:18:32;;;;;;;15.88;4.40;;;;;;;12.46;100.00;101724.75;5113361;28;20023;-50
2021/12/31 05:20:58;;;;;;;9.68;3.95;;;;;;;12.45;100.00;101717.69;5114122;28;20502;-51
2021/12/31 05:23:23;;;;;;;13.40;4.70;;;;;;;12.44;100.00;101716.88;5114773;28;20019;-51
2021/12/31 05:25:49;;;;;;;12.02;4.43;;;;;;;12.44;100.00;101714.19;5114137;28;20380;-50
2021/12/31 05:28:14;;;;;;;14.73;4.20;;;;;;;12.47;100.00;101715.69;5113254;28;20023;-50
2021/12/31 05:30:39;;;;;;;14.13;4.47;;;;;;;12.45;100.00;101715.03;5113410;28;20098;-50
2021/12/31 05:33:05;;;;;;;12.82;4.30;;;;;;;12.45;100.00;101696.25;5114003;28;20050;-49
2021/12/31 05:35:30;;;;;;;12.45;4.32;;;;;;;12.42;100.00;101688.53;5113869;28;20292;-48
2021/12/31 05:37:56;;;;;;;15.73;4.30;;;;;;;12.40;100.00;101687.84;5113842;28;20026;-47
2021/12/31 05:40:22;;;;;;;13.02;4.32;;;;;;;12.38;100.00;101676.44;5113678;28;20535;-49
2021/12/31 05:42:47;;;;;;;12.60;4.38;;;;;;;12.36;100.00;101678.44;5113276;28;20143;-49
2021/12/31 05:45:12;;;;;;;12.27;4.35;;;;;;;12.32;100.00;101675.19;5113070;28;20079;-50
2021/12/31 05:47:38;;;;;;;16.00;4.35;;;;;;;12.31;100.00;101673.53;5113064;28;20620;-48
2021/12/31 05:50:07;;;;;;;9.02;4.07;;;;;;;12.26;100.00;101667.78;5113358;28;20024;-49
2021/12/31 05:52:33;;;;;;;15.73;4.30;;;;;;;12.19;100.00;101669.41;5112699;27;20027;-49
2021/12/31 05:54:58;;;;;;;11.65;4.25;;;;;;;12.10;100.00;101677.34;5114232;28;20034;-50
2021/12/31 05:57:23;;;;;;;15.57;4.53;;;;;;;12.05;100.00;101684.97;5114060;28;20027;-51
2021/12/31 05:59:49;;;;;;;18.17;4.53;;;;;;;12.01;100.00;101680.06;5104453;28;20027;-49
2021/12/31 06:02:14;;;;;;;15.93;4.30;;;;;;;12.00;100.00;101683.72;5081315;28;20040;-50
2021/12/31 06:04:39;;;;;;;10.98;4.38;;;;;;;11.96;100.00;101685.03;5099096;28;20027;-48
2021/12/31 06:07:05;;;;;;;15.65;4.15;;;;;;;11.90;100.00;101676.56;5099530;28;20024;-50
2021/12/31 06:09:30;;;;;;;10.52;4.18;;;;;;;11.82;100.00;101678.31;5099397;28;20620;-50
2021/12/31 06:11:57;;;;;;;14.50;4.35;;;;;;;11.75;100.00;101683.41;5099657;28;20492;-47
2021/12/31 06:14:23;;;;;;;11.68;4.05;;;;;;;11.71;100.00;101688.22;5099053;28;20397;-50
2021/12/31 06:16:48;;;;;;;11.32;4.45;;;;;;;11.74;100.00;101695.09;5099602;28;20023;-49
2021/12/31 06:19:14;;;;;;;12.55;4.20;;;;;;;11.70;100.00;101697.22;5099421;28;20368;-47
2021/12/31 06:21:41;;;;;;;17.35;4.70;;;;;;;11.62;100.00;101686.41;5080108;28;20030;-49
2021/12/31 06:24:08;;;;;;;14.15;4.70;;;;;;;11.57;100.00;101694.91;5099620;28;20446;-46
2021/12/31 06:26:33;;;;;;;11.65;4.07;;;;;;;11.52;100.00;101712.38;5098765;28;20027;-49
2021/12/31 06:28:58;;;;;;;18.67;4.82;;;;;;;11.48;100.00;101703.78;5098857;28;20299;-47
2021/12/31 06:31:24;;;;;;;11.43;4.53;;;;;;;11.48;100.00;101698.44;5099382;28;20027;-48
2021/12/31 06:33:50;;;;;;;17.35;4.80;;;;;;;11.42;100.00;101690.16;5098143;28;20110;-50
2021/12/31 06:36:16;;;;;;;14.57;4.72;;;;;;;11.42;100.00;101701.69;5098610;28;20028;-48
2021/12/31 06:38:43;;;;;;;8.85;4.45;;;;;;;11.36;100.00;101691.59;5099477;28;20493;-49
2021/12/31 06:41:08;;;;;;;14.65;4.65;;;;;;;11.29;100.00;101699.34;5099404;28;20098;-49
2021/12/31 06:43:33;;;;;;;14.35;4.35;;;;;;;11.27;100.00;101698.66;5097916;27;20422;-50
2021/12/31 06:45:59;;;;;;;19.45;4.75;;;;;;;11.26;100.00;101701.47;5099773;28;20073;-49
2021/12/31 06:48:24;;;;;;;15.30;4.47;;;;;;;11.23;100.00;101697.25;5098672;28;20438;-48
2021/12/31 06:50:49;;;;;;;11.00;4.47;;;;;;;11.20;100.00;101695.72;5098926;28;20080;-49
2021/12/31 06:53:14;;;;;;;10.15;4.90;;;;;;;11.18;100.00;101703.03;5079643;28;20016;-48
2021/12/31 06:55:40;;;;;;;14.70;4.30;;;;;;;11.15;100.00;101697.97;5102733;27;20291;-49
2021/12/31 06:58:05;;;;;;;14.05;4.68;;;;;;;11.15;100.00;101706.00;5119730;27;20437;-48
2021/12/31 07:00:31;;;;;;;11.80;4.68;;;;;;;11.14;100.00;101704.31;5118246;27;20106;-48
2021/12/31 07:03:07;;;;;;;12.05;4.40;;;;;;;11.09;100.00;101706.56;5119474;27;20102;-46
2021/12/31 07:05:33;;;;;;;14.20;4.55;;;;;;;11.08;100.00;101725.41;5119134;27;20556;-49
2021/12/31 07:07:58;;;;;;;12.15;5.05;;;;;;;11.02;100.00;101708.97;5119031;27;20011;-50
2021/12/31 07:10:24;;;;;;;13.52;4.32;;;;;;;11.04;100.00;101719.50;5119304;27;20066;-48
2021/12/31 07:12:49;;;;;;;11.68;4.30;;;;;;;11.05;100.00;101710.53;5117927;27;20019;-48
2021/12/31 07:15:14;;;;;;;14.27;4.13;;;;;;;11.02;100.00;101714.31;5098828;27;20060;-50
2021/12/31 07:17:39;;;;;;;10.52;4.70;;;;;;;11.06;100.00;101695.31;5117081;27;20025;-49
2021/12/31 07:20:06;;;;;;;20.05;4.60;;;;;;;11.04;100.00;101700.81;5117980;27;20307;-47
2021/12/31 07:22:33;;;;;;;13.90;4.35;;;;;;;11.03;100.00;101709.78;5117283;27;20650;-49
2021/12/31 07:24:59;;;;;;;8.82;4.47;;;;;;;11.00;100.00;101702.94;5118075;27;20126;-46
2021/12/31 07:27:24;;;;;;;13.52;5.03;;;;;;;11.00;100.00;101716.28;5100248;27;20114;-47
2021/12/31 07:29:49;;;;;;;12.70;4.70;;;;;;;11.00;100.00;101715.44;5117728;27;20058;-50
2021/12/31 07:32:15;;;;;;;13.10;4.70;;;;;;;10.99;100.00;101714.59;5109895;27;20034;-50
2021/12/31 07:34:40;;;;;;;15.30;4.38;;;;;;;11.00;100.00;101716.28;5096939;28;20023;-46
2021/12/31 07:37:05;;;;;;;11.00;3.97;;;;;;;10.99;100.00;101713.75;5079230;28;20015;-50
2021/12/31 07:39:32;;;;;;;12.10;4.55;;;;;;;10.99;100.00;101725.28;5097742;28;20027;-51
2021/12/31 07:41:58;;;;;;;13.98;3.72;;;;;;;11.00;100.00;101716.28;5097817;28;20016;-46
2021/12/31 07:44:24;;;;;;;9.82;3.60;;;;;;;10.99;100.00;101719.09;5097167;28;20031;-50
2021/12/31 07:46:49;;;;;;;17.13;4.50;;;;;;;11.02;100.00;101710.81;5097170;28;20036;-50
2021/12/31 07:49:14;;;;;;;11.98;4.15;;;;;;;11.02;100.00;101722.31;5098544;27;20115;-48
2021/12/31 07:51:40;;;;;;;13.10;4.88;;;;;;;11.04;100.00;101724.03;5117743;27;20129;-51
2021/12/31 07:54:05;;;;;;;8.02;3.90;;;;;;;11.04;100.00;101718.69;5109540;27;20346;-51
2021/12/31 07:56:30;;;;;;;15.35;4.47;;;;;;;11.02;100.00;101716.97;5097260;28;20039;-49
2021/12/31 07:58:56;;;;;;;13.35;4.03;;;;;;;11.02;100.00;101716.97;5103492;27;20015;-47
2021/12/31 08:01:21;;;;;;;10.20;3.92;;;;;;;11.00;100.00;101718.13;5118142;27;20087;-51
2021/12/31 08:03:46;;;;;;;13.25;4.55;;;;;;;11.00;100.00;101731.50;5114428;27;20106;-48
2021/12/31 08:06:12;;;;;;;8.50;3.88;;;;;;;11.00;100.00;101726.16;5117903;27;20043;-48
2021/12/31 08:08:37;;;;;;;12.20;4.18;;;;;;;10.98;100.00;101725.41;5106760;27;20596;-49
2021/12/31 08:11:02;;;;;;;12.35;4.78;;;;;;;11.01;100.00;101727.81;5097795;28;20030;-50
2021/12/31 08:13:28;;;;;;;10.85;4.50;;;;;;;11.00;100.00;101735.00;5096402;28;20521;-46
2021/12/31 08:15:54;;;;;;;14.85;3.75;;;;;;;10.98;100.00;101715.59;5097856;28;20023;-47
2021/12/31 08:18:19;;;;;;;9.15;3.38;;;;;;;11.02;100.00;101725.00;5099391;27;20096;-46
2021/12/31 08:20:44;;;;;;;10.20;4.43;;;;;;;11.07;100.00;101723.75;5113860;27;20105;-49
2021/12/31 08:23:12;;;;;;;11.32;4.80;;;;;;;11.01;100.00;101725.13;5094710;28;20064;-49
2021/12/31 08:25:38;;;;;;;10.88;3.72;;;;;;;11.04;100.00;101732.88;5096925;28;20027;-47
2021/12/31 08:28:04;;;;;;;12.40;4.13;;;;;;;11.06;100.00;101738.09;5096668;28;20043;-48
2021/12/31 08:30:29;;;;;;;14.10;4.13;;;;;;;11.07;100.00;101727.25;5097237;28;20442;-50
2021/12/31 08:32:55;;;;;;;10.07;3.85;;;;;;;11.07;100.00;101713.88;5097287;28;20046;-52
2021/12/31 08:35:20;;;;;;;7.68;3.70;;;;;;;11.06;100.00;101722.88;5097128;28;20037;-52
2021/12/31 08:37:46;;;;;;;9.15;3.53;;;;;;;11.09;100.00;101735.13;5096533;28;20012;-51
2021/12/31 08:40:12;;;;;;;8.68;3.70;;;;;;;11.11;100.00;101723.28;5097176;28;20110;-52
2021/12/31 08:42:39;;;;;;;10.90;3.58;;;;;;;11.16;100.00;101733.56;5097034;28;20181;-50
2021/12/31 08:45:04;;;;;;;10.55;3.75;;;;;;;11.20;100.00;101726.94;5095915;28;20019;-48
2021/12/31 08:47:30;;;;;;;9.70;3.53;;;;;;;11.25;100.00;101731.88;5096621;28;20109;-50
2021/12/31 08:49:55;;;;;;;8.32;3.55;;;;;;;11.27;100.00;101722.72;5097182;28;20100;-50
2021/12/31 08:52:20;;;;;;;7.18;3.10;;;;;;;11.31;100.00;101720.59;5115362;28;20344;-50
2021/12/31 08:54:46;;;;;;;7.85;3.28;;;;;;;11.34;100.00;101706.94;5091422;28;20187;-51
2021/12/31 08:57:11;;;;;;;8.98;3.60;;;;;;;11.38;100.00;101709.16;5115471;28;20027;-51
2021/12/31 08:59:36;;;;;;;7.18;3.05;;;;;;;11.41;100.00;101709.88;5116779;28;20426;-50
2021/12/31 09:02:02;;;;;;;9.57;3.30;;;;;;;11.41;100.00;101701.88;5095119;28;20043;-52
2021/12/31 09:04:27;;;;;;;9.75;3.20;;;;;;;11.45;100.00;101696.06;5116771;28;20020;-51
2021/12/31 09:06:52;;;;;;;7.25;3.45;;;;;;;11.48;100.00;101706.47;5118142;28;20035;-51
2021/12/31 09:09:18;;;;;;;8.52;3.30;;;;;;;11.47;100.00;101710.16;5117790;28;20047;-51
2021/12/31 09:11:43;;;;;;;8.10;2.97;;;;;;;11.49;100.00;101713.50;5105589;28;20032;-51
2021/12/31 09:14:10;;;;;;;10.35;3.33;;;;;;;11.53;100.00;101722.94;5095665;28;20081;-51
2021/12/31 09:16:35;;;;;;;7.28;3.40;;;;;;;11.52;100.00;101734.63;5095700;28;20027;-51
2021/12/31 09:19:00;;;;;;;10.55;4.40;;;;;;;11.56;100.00;101722.63;5096847;28;20019;-52
2021/12/31 09:21:26;;;;;;;9.98;4.28;;;;;;;11.57;100.00;101713.63;5096635;28;20019;-51
2021/12/31 09:23:51;;;;;;;18.45;5.20;;;;;;;11.59;100.00;101729.50;5096131;28;20718;-47
2021/12/31 09:26:16;;;;;;;16.90;5.30;;;;;;;11.63;100.00;101716.72;5096668;28;20023;-48
2021/12/31 09:28:43;;;;;;;14.60;4.82;;;;;;;11.64;100.00;101724.56;5095441;28;20448;-48
2021/12/31 09:31:09;;;;;;;18.45;5.60;;;;;;;11.63;100.00;101722.91;5096755;28;20023;-50
2021/12/31 09:33:35;;;;;;;20.08;5.75;;;;;;;11.66;100.00;101727.09;5095524;28;20058;-51
2021/12/31 09:36:01;;;;;;;14.27;4.32;;;;;;;11.68;100.00;101725.13;5099649;28;20051;-50
2021/12/31 09:38:26;;;;;;;22.45;5.63;;;;;;;11.71;100.00;101738.19;5100614;28;20019;-50
2021/12/31 09:40:53;;;;;;;17.33;4.63;;;;;;;11.69;100.00;101745.53;5099126;28;20358;-51
2021/12/31 09:43:19;;;;;;;10.27;4.25;;;;;;;11.71;100.00;101746.22;5099204;28;20077;-49
2021/12/31 09:45:47;;;;;;;13.45;4.88;;;;;;;11.76;100.00;101746.63;5100135;28;20069;-50
2021/12/31 09:48:20;;;;;;;13.35;4.65;;;;;;;11.80;100.00;101755.25;5099747;28;20078;-50
2021/12/31 09:50:47;;;;;;;14.65;4.70;;;;;;;11.82;100.00;101762.13;5100048;28;20042;-48
2021/12/31 09:53:14;;;;;;;10.40;3.92;;;;;;;11.82;100.00;101767.47;5099663;28;20190;-50
2021/12/31 09:55:46;;;;;;;9.00;3.75;;;;;;;11.83;100.00;101768.31;5100096;28;20466;-50
2021/12/31 09:58:13;;;;;;;9.77;3.88;;;;;;;11.82;100.00;101762.13;5098641;28;20136;-51
2021/12/31 10:00:42;;;;;;;11.93;3.92;;;;;;;11.79;100.00;101778.47;5098878;28;20023;-48
2021/12/31 10:03:15;;;;;;;13.80;4.40;;;;;;;11.77;100.00;101761.72;5099595;28;20547;-49
2021/12/31 10:05:45;;;;;;;8.43;3.45;;;;;;;11.79;100.00;101766.94;5099916;28;20130;-51
2021/12/31 10:08:15;;;;;;;12.18;3.85;;;;;;;11.77;100.00;101751.84;5099855;28;20024;-47
2021/12/31 10:10:40;;;;;;;7.63;3.70;;;;;;;11.77;100.00;101757.19;5100096;28;20031;-48
2021/12/31 10:13:07;;;;;;;7.03;3.50;;;;;;;11.76;100.00;101776.94;5099058;28;20023;-48
2021/12/31 10:15:39;;;;;;;8.27;3.67;;;;;;;11.75;100.00;101771.72;5099347;28;20035;-49
2021/12/31 10:18:15;;;;;;;;;;;;;;;11.76;100.00;101760.00;5113970;27;20197;-47
2021/12/31 10:20:50;;;;;;;7.25;3.42;;;;;;;11.71;100.00;101749.78;5120259;27;19945;-50
2021/12/31 10:23:17;;;;;;;8.98;3.42;;;;;;;11.72;100.00;101746.09;5119404;27;20039;-47
2021/12/31 10:25:43;;;;;;;8.25;3.58;;;;;;;11.73;100.00;101742.44;5119831;27;20042;-47
2021/12/31 10:28:10;;;;;;;10.10;3.80;;;;;;;11.74;100.00;101740.59;5119415;27;20442;-51
2021/12/31 10:30:36;;;;;;;8.05;3.42;;;;;;;11.77;100.00;101716.22;5119676;27;20046;-49
2021/12/31 10:33:01;;;;;;;10.90;3.92;;;;;;;11.84;100.00;101724.50;5120198;27;20019;-51
2021/12/31 10:35:26;;;;;;;9.40;3.50;;;;;;;11.88;100.00;101741.94;5120152;27;20423;-51
2021/12/31 10:37:58;;;;;;;9.07;3.65;;;;;;;11.93;100.00;101732.53;5115345;27;20066;-47
2021/12/31 10:40:32;;;;;;;6.93;3.53;;;;;;;11.96;100.00;101738.56;5107308;27;20054;-50
2021/12/31 10:43:21;;;;;;;9.25;3.50;;;;;;;11.96;100.00;101741.25;5097696;27;20026;-51
2021/12/31 10:45:57;;;;;;;13.60;3.70;;;;;;;11.94;100.00;101757.44;5113368;27;20030;-51
2021/12/31 10:48:37;;;;;;;8.00;3.65;;;;;;;11.94;100.00;101771.66;5119382;27;20051;-47
2021/12/31 10:51:03;;;;;;;12.00;3.80;;;;;;;11.93;100.00;101769.13;5104655;27;20023;-50
2021/12/31 10:53:33;;;;;;;7.80;3.42;;;;;;;11.93;100.00;101772.69;5098756;28;20046;-51
2021/12/31 10:56:12;;;;;;;9.10;3.70;;;;;;;11.94;100.00;101763.63;5098365;28;20084;-50
2021/12/31 10:58:42;;;;;;;9.15;3.40;;;;;;;11.94;100.00;101760.97;5097639;28;20509;-50
2021/12/31 11:01:12;;;;;;;11.68;4.07;;;;;;;11.99;100.00;101760.53;5098909;28;20022;-50
2021/12/31 11:03:39;;;;;;;10.15;3.72;;;;;;;12.04;100.00;101744.03;5098274;28;20042;-48
2021/12/31 11:06:07;;;;;;;10.95;4.18;;;;;;;12.11;100.00;101755.81;5098657;28;20034;-50
2021/12/31 11:08:33;;;;;;;7.65;3.55;;;;;;;12.23;100.00;101738.56;5097996;28;20127;-52
2021/12/31 11:11:01;;;;;;;13.77;4.10;;;;;;;12.31;100.00;101735.97;5099365;28;20080;-52
2021/12/31 11:13:28;;;;;;;15.27;3.40;;;;;;;12.42;100.00;101726.91;5098564;28;20023;-52
2021/12/31 11:15:55;;;;;;;5.50;3.42;;;;;;;12.57;100.00;101705.75;5097867;28;20073;-51